»·PEaware :: UAL2944 KPHX-KSAN

UAL2944 :: KPHX-KSAN

FLIGHT INFORMATION

Flight Status: Arrived
Operator:
United Airlines
More flights by this operator :: More flights under this callsign
Pilot: Anonymous 15639 (15639)
Aircraft: BOEING 737-800
(B738)
More flights by this aircraft type
Origin: KPHX Phoenix Sky Harbor Intl
United States
Destination: KSAN San Diego Intl-Lindbergh
United States
More flights between these airports :: More routes between these airports
Route: FYRBD1 MOHAK J2 HOGGZ LUCKI1
File this flight plan on PilotEdge
Remarks:
Altitude:
(Current/Filed)
40,000ft
Speed:
(Current/Filed)
454kts
Departed: 05-Sep-18 02:22 PM
Arrived: 05-Sep-18 03:12 PM
Distance/Time
Traveled:
264nm/0:50
Distance/Time
To Go:
Arrived

Flight Plot

Page will automatically refresh every two minutes.

Flight plan parsing failed; only flown route is shown


Map Options




Map Legend


Flown Route
Filed Route
Departure Airport
Arrival Airport
Navaid (VOR, NDB)
Fix

Horizontal Profiles

Position Reports

Time Latitude Longitude Heading Altitude Ground
Speed
05-Sep-18 13:56 33.437335 -112.008157 270 1139ft 0kts
05-Sep-18 13:57 33.437335 -112.008157 270 1139ft 0kts
05-Sep-18 13:58 33.437335 -112.008157 270 1139ft 0kts
05-Sep-18 13:59 33.437335 -112.008157 270 1139ft 0kts
05-Sep-18 14:00 33.437335 -112.008157 270 1139ft 0kts
05-Sep-18 14:01 33.437335 -112.008157 270 1139ft 0kts
05-Sep-18 14:02 33.437335 -112.008157 270 1139ft 0kts
05-Sep-18 14:03 33.437335 -112.008157 270 1139ft 0kts
05-Sep-18 14:04 33.437335 -112.008157 270 1139ft 0kts
05-Sep-18 14:05 33.437335 -112.008157 270 1139ft 0kts
05-Sep-18 14:06 33.437335 -112.008157 270 1139ft 0kts
05-Sep-18 14:07 33.437335 -112.008157 270 1139ft 0kts
05-Sep-18 14:08 33.437335 -112.008157 270 1139ft 0kts
05-Sep-18 14:09 33.437335 -112.008157 270 1139ft 0kts
05-Sep-18 14:10 33.437335 -112.008157 270 1139ft 0kts
05-Sep-18 14:11 33.437335 -112.008157 270 1139ft 0kts
05-Sep-18 14:12 33.437335 -112.008157 270 1139ft 0kts
05-Sep-18 14:13 33.437335 -112.008157 270 1139ft 0kts
05-Sep-18 14:14 33.437330 -112.007565 289 1139ft 2kts
05-Sep-18 14:15 33.437054 -112.007381 0 1139ft 0kts
05-Sep-18 14:16 33.437055 -112.007381 0 1139ft 0kts
05-Sep-18 14:17 33.437834 -112.007375 0 1139ft 5kts
05-Sep-18 14:18 33.438996 -112.006033 89 1139ft 8kts
05-Sep-18 14:19 33.439705 -112.003882 88 1139ft 9kts
05-Sep-18 14:20 33.439713 -112.000315 90 1139ft 11kts
05-Sep-18 14:21 33.439713 -111.996218 90 1139ft 13kts
05-Sep-18 14:22 33.439707 -111.992845 90 1139ft 7kts
05-Sep-18 14:23 33.440811 -111.993509 269 1139ft 16kts
05-Sep-18 14:24 33.440593 -112.033347 266 1989ft 171kts
05-Sep-18 14:25 33.422440 -112.099621 249 3505ft 257kts
05-Sep-18 14:26 33.387123 -112.176249 212 6552ft 278kts
05-Sep-18 14:27 33.310473 -112.165242 161 9432ft 296kts
05-Sep-18 14:28 33.233548 -112.180060 232 11674ft 326kts
05-Sep-18 14:29 33.210466 -112.284764 235 14645ft 339kts
05-Sep-18 14:30 33.151982 -112.374721 232 17792ft 351kts
05-Sep-18 14:31 33.091140 -112.467969 232 20710ft 364kts
05-Sep-18 14:32 33.028469 -112.564340 233 23335ft 375kts
05-Sep-18 14:33 32.965022 -112.665019 242 25704ft 386kts
05-Sep-18 14:34 32.940059 -112.789685 261 27848ft 396kts
05-Sep-18 14:35 32.922687 -112.919809 262 30177ft 397kts
05-Sep-18 14:36 32.905342 -113.047726 264 32466ft 391kts
05-Sep-18 14:37 32.887992 -113.174750 265 34316ft 390kts
05-Sep-18 14:38 32.870606 -113.300927 265 36078ft 385kts
05-Sep-18 14:39 32.853217 -113.426132 265 37521ft 384kts
05-Sep-18 14:40 32.835684 -113.551357 265 38769ft 384kts
05-Sep-18 14:41 32.818033 -113.676388 264 39849ft 384kts
05-Sep-18 14:42 32.799677 -113.805791 264 39942ft 412kts
05-Sep-18 14:43 32.779938 -113.943753 264 39933ft 430kts
05-Sep-18 14:44 32.774107 -114.083520 275 39933ft 422kts
05-Sep-18 14:45 32.780081 -114.222473 276 39932ft 422kts
05-Sep-18 14:46 32.785828 -114.361152 276 39931ft 422kts
05-Sep-18 14:47 32.815798 -114.493848 291 39930ft 417kts
05-Sep-18 14:48 32.852189 -114.624407 290 39701ft 420kts
05-Sep-18 14:49 32.879332 -114.757328 273 38705ft 419kts
05-Sep-18 14:50 32.876478 -114.894447 272 36742ft 414kts
05-Sep-18 14:51 32.873067 -115.032932 272 34062ft 423kts
05-Sep-18 14:52 32.869631 -115.171434 273 31357ft 418kts
05-Sep-18 14:53 32.865970 -115.315189 273 28669ft 441kts
05-Sep-18 14:54 32.850231 -115.457825 263 25858ft 434kts
05-Sep-18 14:55 32.827596 -115.596713 261 23607ft 425kts
05-Sep-18 14:56 32.804964 -115.732912 259 21600ft 415kts
05-Sep-18 14:57 32.784024 -115.864755 264 19593ft 401kts
05-Sep-18 14:58 32.774170 -115.994116 264 17593ft 386kts
05-Sep-18 14:59 32.764807 -116.118789 264 15590ft 371kts
05-Sep-18 15:00 32.755768 -116.237463 263 13866ft 348kts
05-Sep-18 15:01 32.747147 -116.349195 264 12368ft 338kts
05-Sep-18 15:02 32.738964 -116.454972 263 10719ft 306kts
05-Sep-18 15:03 32.730601 -116.553187 262 9353ft 289kts
05-Sep-18 15:04 32.721648 -116.645850 262 8146ft 278kts
05-Sep-18 15:05 32.714312 -116.734558 263 7032ft 270kts
05-Sep-18 15:06 32.707324 -116.820874 257 5985ft 247kts
05-Sep-18 15:07 32.685378 -116.893655 249 4856ft 223kts
05-Sep-18 15:08 32.677895 -116.962217 285 3813ft 197kts
05-Sep-18 15:08 32.689949 -117.010724 285 3116ft 164kts
05-Sep-18 15:09 32.701410 -117.057595 287 2334ft 137kts
05-Sep-18 15:10 32.711939 -117.100857 287 1502ft 135kts
05-Sep-18 15:12 32.724112 -117.150908 288 603ft 139kts
05-Sep-18 15:13 32.734098 -117.191981 287 25ft 66kts
05-Sep-18 15:13 32.734960 -117.198353 207 25ft 9kts
05-Sep-18 15:14 32.734554 -117.198092 105 25ft 4kts
05-Sep-18 15:15 32.733798 -117.194952 107 25ft 14kts
05-Sep-18 15:16 32.732341 -117.195056 279 25ft 3kts
05-Sep-18 15:17 32.732555 -117.195469 309 25ft 0kts
05-Sep-18 15:18 32.732555 -117.195469 309 25ft 0kts

Navigation Log

Ident Type
Flight plan parsing failed, navigation log unavailable